Sebat — 3FWW6 — position and weather

sailwx.info

Track history (hours):
 
Tides and Currents Weather Stations Pressure Air Temp Water Temp Dewpoint Dewpoint Depression Visibility Wind Speed Wind Dir Waves Ship Positions

Sebat

Last reported at 2018-Apr-24 02:41 UTC. Time now 2018-Apr-25 20:24 UTC.
Position N 35°52' E 032°35'.

Length 148 m; draft 7.4 m.

Type: Cargo ship. MMSI: 374881000.

Date/timePositionNaut miles runAvg speedWind from/ knotsBaromVisibWave heightAir tempDewpointWater temp
2018-Apr-24 02:41N 35°52' E 032°35'212.7
2018-Apr-24 02:30N 35°52' E 032°32'612.8
2018-Apr-24 02:00N 35°53' E 032°25'713.1
2018-Apr-24 01:30N 35°55' E 032°17'713.4
2018-Apr-24 01:00N 35°56' E 032°08'813.4
2018-Apr-24 00:23N 35°56' E 031°58'1413.3
2018-Apr-23 23:20N 35°58' E 031°41'513.3
2018-Apr-23 23:00N 35°59' E 031°36'713.3
2018-Apr-23 22:30N 35°60' E 031°28'713.0
2018-Apr-23 22:00N 36°01' E 031°20'712.8
2018-Apr-23 21:27N 36°02' E 031°11'612.8
2018-Apr-23 20:58N 36°03' E 031°03'612.8
2018-Apr-23 20:30N 36°04' E 030°56'713.0
2018-Apr-23 20:00N 36°05' E 030°48'1013.0
2018-Apr-23 19:12N 36°06' E 030°36'313.1
2018-Apr-23 19:00N 36°06' E 030°32'  
2018-Apr-21 06:55N 36°30' E 015°17'613.2
2018-Apr-21 06:28N 36°30' E 015°10'612.7
2018-Apr-21 05:58N 36°31' E 015°02'613.4
2018-Apr-21 05:30N 36°32' E 014°54'714.1
2018-Apr-21 04:59N 36°35' E 014°46'714.2
2018-Apr-21 04:29N 36°38' E 014°37'612.6
2018-Apr-21 03:59N 36°40' E 014°30'613.3
2018-Apr-21 03:30N 36°43' E 014°23'713.1
2018-Apr-21 03:00N 36°46' E 014°16'712.9
2018-Apr-21 02:30N 36°49' E 014°09'712.7
2018-Apr-21 01:59N 36°52' E 014°01'612.5
2018-Apr-21 01:30N 36°55' E 013°55'612.6
2018-Apr-21 00:59N 36°58' E 013°47'612.7
2018-Apr-21 00:30N 37°00' E 013°40'712.8
2018-Apr-21 00:00N 37°03' E 013°33'  
2018-Apr-17 23:03N 36°02' W 005°09'112.3
2018-Apr-17 22:57N 36°02' W 005°10'612.6
2018-Apr-17 22:30N 36°00' W 005°17'613.2
2018-Apr-17 22:00N 35°58' W 005°25'17112.2
2018-Apr-17 07:57N 36°28' W 008°54'612.3
2018-Apr-17 07:29N 36°30' W 009°00'9511.7
2018-Apr-16 23:23N 37°56' W 009°51'612.5
2018-Apr-16 22:55N 38°01' W 009°53'2012.7
2018-Apr-16 21:19N 38°21' W 009°58'412.8
2018-Apr-16 20:58N 38°25' W 009°60'612.8
2018-Apr-16 20:29N 38°31' W 010°02'612.9
2018-Apr-16 19:58N 38°38' W 010°04'612.7
2018-Apr-16 19:29N 38°44' W 010°05'612.8
2018-Apr-16 19:00N 38°50' W 010°05'612.8
2018-Apr-16 18:30N 38°56' W 010°05'612.6
2018-Apr-16 18:00N 39°03' W 010°05'612.3
2018-Apr-16 17:30N 39°09' W 010°05'  
Track history (hours):
 
Tides and Currents Weather Stations Pressure Air Temp Water Temp Dewpoint Dewpoint Depression Visibility Wind Speed Wind Dir Waves Ship Positions

Sebat

Last reported at 2018-Apr-24 02:41 UTC. Time now 2018-Apr-25 20:24 UTC.
Position N 35°52' E 032°35'.

Length 148 m; draft 7.4 m.

Type: Cargo ship. MMSI: 374881000.

Date/timePositionNaut miles runAvg speedWind from/ knotsBaromVisibWave heightAir tempDewpointWater temp
2018-Apr-24 02:41N 35°52' E 032°35'212.7
2018-Apr-24 02:30N 35°52' E 032°32'612.8
2018-Apr-24 02:00N 35°53' E 032°25'713.1
2018-Apr-24 01:30N 35°55' E 032°17'713.4
2018-Apr-24 01:00N 35°56' E 032°08'813.4
2018-Apr-24 00:23N 35°56' E 031°58'1413.3
2018-Apr-23 23:20N 35°58' E 031°41'513.3
2018-Apr-23 23:00N 35°59' E 031°36'713.3
2018-Apr-23 22:30N 35°60' E 031°28'713.0
2018-Apr-23 22:00N 36°01' E 031°20'712.8
2018-Apr-23 21:27N 36°02' E 031°11'612.8
2018-Apr-23 20:58N 36°03' E 031°03'612.8
2018-Apr-23 20:30N 36°04' E 030°56'713.0
2018-Apr-23 20:00N 36°05' E 030°48'1013.0
2018-Apr-23 19:12N 36°06' E 030°36'313.1
2018-Apr-23 19:00N 36°06' E 030°32'  
2018-Apr-21 06:55N 36°30' E 015°17'613.2
2018-Apr-21 06:28N 36°30' E 015°10'612.7
2018-Apr-21 05:58N 36°31' E 015°02'613.4
2018-Apr-21 05:30N 36°32' E 014°54'714.1
2018-Apr-21 04:59N 36°35' E 014°46'714.2
2018-Apr-21 04:29N 36°38' E 014°37'612.6
2018-Apr-21 03:59N 36°40' E 014°30'613.3
2018-Apr-21 03:30N 36°43' E 014°23'713.1
2018-Apr-21 03:00N 36°46' E 014°16'712.9
2018-Apr-21 02:30N 36°49' E 014°09'712.7
2018-Apr-21 01:59N 36°52' E 014°01'612.5
2018-Apr-21 01:30N 36°55' E 013°55'612.6
2018-Apr-21 00:59N 36°58' E 013°47'612.7
2018-Apr-21 00:30N 37°00' E 013°40'712.8
2018-Apr-21 00:00N 37°03' E 013°33'  
2018-Apr-17 23:03N 36°02' W 005°09'112.3
2018-Apr-17 22:57N 36°02' W 005°10'612.6
2018-Apr-17 22:30N 36°00' W 005°17'613.2
2018-Apr-17 22:00N 35°58' W 005°25'17112.2
2018-Apr-17 07:57N 36°28' W 008°54'612.3
2018-Apr-17 07:29N 36°30' W 009°00'9511.7
2018-Apr-16 23:23N 37°56' W 009°51'612.5
2018-Apr-16 22:55N 38°01' W 009°53'2012.7
2018-Apr-16 21:19N 38°21' W 009°58'412.8
2018-Apr-16 20:58N 38°25' W 009°60'612.8
2018-Apr-16 20:29N 38°31' W 010°02'612.9
2018-Apr-16 19:58N 38°38' W 010°04'612.7
2018-Apr-16 19:29N 38°44' W 010°05'612.8
2018-Apr-16 19:00N 38°50' W 010°05'612.8
2018-Apr-16 18:30N 38°56' W 010°05'612.6
2018-Apr-16 18:00N 39°03' W 010°05'612.3
2018-Apr-16 17:30N 39°09' W 010°05'  

Dump ship's entire track history